< < Back
Terminal Aerodrome Forecast


Current Version              Previous Versions:   1  2  3  4  5  6  7  8  9  

Terminal Aerodrome Forecast

653
FTUS42 KJAX 312347
TAFSSI
TAF
KSSI 312347Z 0100/0124 06007KT P6SM BKN250
     FM010200 07004KT P6SM BKN250
     FM011400 12008KT P6SM BKN250
     FM011700 15011G17KT P6SM SCT040 BKN250=

Latest METAR

340
SAUS70 KWBC 010700 RRX
MTRSSI
METAR KSSI 010653Z AUTO 07005KT 10SM CLR 09/06 A3028 RMK AO2 SLP253
T00890061


USA.gov is the U.S. government's official web portal to all federal, state and local government web resources and services.